createdAt,value
2023-03-21T00:00:19.758Z,10.70
2023-03-21T00:00:56.051Z,10.70
2023-03-21T00:01:29.269Z,10.70
2023-03-21T00:02:01.190Z,10.70
2023-03-21T00:02:34.078Z,10.60
2023-03-21T00:03:06.304Z,10.70
2023-03-21T00:03:38.204Z,10.60
2023-03-21T00:04:11.956Z,10.70
2023-03-21T00:04:51.224Z,10.70
2023-03-21T00:05:24.160Z,10.70
2023-03-21T00:05:57.401Z,10.70
2023-03-21T00:06:29.302Z,10.70
2023-03-21T00:07:01.170Z,10.70
2023-03-21T00:07:33.967Z,10.70
2023-03-21T00:08:06.014Z,10.70
2023-03-21T00:08:38.683Z,10.70
2023-03-21T00:09:12.139Z,10.70
2023-03-21T00:09:44.070Z,10.70
2023-03-21T00:10:23.924Z,10.70
2023-03-21T00:11:04.576Z,10.70
2023-03-21T00:11:36.451Z,10.70
2023-03-21T00:12:10.257Z,10.70
2023-03-21T00:12:43.403Z,10.70
2023-03-21T00:13:16.198Z,10.70
2023-03-21T00:13:48.128Z,10.70
2023-03-21T00:14:21.155Z,10.70
2023-03-21T00:14:56.020Z,10.70
2023-03-21T00:15:39.275Z,10.70
2023-03-21T00:16:20.404Z,10.80
2023-03-21T00:16:54.710Z,10.80
2023-03-21T00:17:32.399Z,10.80
2023-03-21T00:18:11.297Z,10.80
2023-03-21T00:18:46.296Z,10.80
2023-03-21T00:19:19.182Z,10.80
2023-03-21T00:19:54.840Z,10.90
2023-03-21T00:20:26.727Z,10.90
2023-03-21T00:21:29.388Z,10.90
2023-03-21T00:22:09.749Z,10.90
2023-03-21T00:22:41.780Z,10.90
2023-03-21T00:23:14.635Z,10.90
2023-03-21T00:23:47.140Z,10.90
2023-03-21T00:24:18.995Z,11.00
2023-03-21T00:24:52.118Z,10.80
2023-03-21T00:25:23.938Z,10.80
2023-03-21T00:25:55.879Z,10.90
2023-03-21T00:26:28.014Z,10.90
2023-03-21T00:27:21.987Z,10.90
2023-03-21T00:28:05.485Z,10.90
2023-03-21T00:28:40.708Z,10.90
2023-03-21T00:29:13.462Z,10.90
2023-03-21T00:29:45.274Z,10.90
2023-03-21T00:30:17.437Z,10.90
2023-03-21T00:30:50.268Z,10.90
2023-03-21T00:31:22.179Z,10.90
2023-03-21T00:31:55.364Z,11.00
2023-03-21T00:32:28.182Z,11.00
2023-03-21T00:33:05.919Z,11.00
2023-03-21T00:33:44.155Z,11.00
2023-03-21T00:34:22.467Z,11.00
2023-03-21T00:35:31.601Z,11.00
2023-03-21T00:36:06.253Z,11.00
2023-03-21T00:36:39.575Z,11.00
2023-03-21T00:37:13.033Z,11.00
2023-03-21T00:37:44.832Z,11.00
2023-03-21T00:38:17.618Z,11.00
2023-03-21T00:38:49.771Z,11.10
2023-03-21T00:39:22.201Z,11.00
2023-03-21T00:39:55.079Z,11.00
2023-03-21T00:40:33.134Z,11.00
2023-03-21T00:41:20.902Z,11.00
2023-03-21T00:41:58.849Z,11.00
2023-03-21T00:42:30.640Z,10.90
2023-03-21T00:43:02.688Z,10.90
2023-03-21T00:43:35.948Z,10.90
2023-03-21T00:44:08.001Z,10.90
2023-03-21T00:44:40.179Z,11.00
2023-03-21T00:45:13.030Z,11.00
2023-03-21T00:45:45.228Z,11.00
2023-03-21T00:46:17.038Z,11.00
2023-03-21T00:47:05.936Z,10.90
2023-03-21T00:47:40.038Z,10.90
2023-03-21T00:48:12.468Z,11.00
2023-03-21T00:48:45.269Z,11.00
2023-03-21T00:49:17.151Z,11.00
2023-03-21T00:49:49.186Z,11.00
2023-03-21T00:50:22.029Z,11.00
2023-03-21T00:50:57.023Z,11.00
2023-03-21T00:51:28.844Z,11.00
2023-03-21T00:52:14.725Z,11.00
2023-03-21T00:52:47.854Z,11.10
2023-03-21T00:53:20.817Z,11.10
2023-03-21T00:53:54.296Z,11.10
2023-03-21T00:54:26.932Z,11.10
2023-03-21T00:54:59.719Z,11.10
2023-03-21T00:55:31.617Z,11.10
2023-03-21T00:56:03.948Z,11.10
2023-03-21T00:56:36.714Z,11.10
2023-03-21T00:57:08.557Z,11.10
2023-03-21T00:57:42.269Z,11.10
2023-03-21T00:58:15.303Z,11.10
2023-03-21T00:58:47.116Z,11.10
2023-03-21T00:59:18.973Z,11.10
2023-03-21T00:59:51.771Z,11.10
2023-03-21T01:00:23.774Z,11.10
2023-03-21T01:00:55.669Z,11.10
2023-03-21T01:01:31.972Z,11.10
2023-03-21T01:02:07.120Z,11.10
2023-03-21T01:02:43.490Z,11.10
2023-03-21T01:03:24.974Z,11.10
2023-03-21T01:04:03.348Z,11.10
2023-03-21T01:04:35.168Z,11.10
2023-03-21T01:05:08.789Z,11.10
2023-03-21T01:06:06.301Z,11.10
2023-03-21T01:06:39.376Z,11.10
2023-03-21T01:07:12.348Z,11.10
2023-03-21T01:07:44.164Z,11.20
2023-03-21T01:08:26.475Z,11.20
2023-03-21T01:09:02.312Z,11.20
2023-03-21T01:09:34.148Z,11.20
2023-03-21T01:10:07.085Z,11.20
2023-03-21T01:10:40.459Z,11.20
2023-03-21T01:11:15.871Z,11.20
2023-03-21T01:11:48.393Z,11.20
2023-03-21T01:12:20.217Z,11.20
2023-03-21T01:12:52.999Z,11.30
2023-03-21T01:13:25.749Z,11.30
2023-03-21T01:14:14.670Z,11.30
2023-03-21T01:14:50.870Z,11.30
2023-03-21T01:15:22.732Z,11.30
2023-03-21T01:15:57.740Z,11.30
2023-03-21T01:16:29.969Z,11.30
2023-03-21T01:17:01.812Z,11.30
2023-03-21T01:17:34.595Z,11.30
2023-03-21T01:18:07.799Z,11.40
2023-03-21T01:18:41.170Z,11.40
2023-03-21T01:19:24.998Z,11.40
2023-03-21T01:19:58.270Z,11.40
2023-03-21T01:20:30.398Z,11.40
2023-03-21T01:21:03.364Z,11.40
2023-03-21T01:21:36.092Z,11.40
2023-03-21T01:22:09.050Z,11.40
2023-03-21T01:22:41.450Z,11.40
2023-03-21T01:23:14.813Z,11.40
2023-03-21T01:23:47.604Z,11.40
2023-03-21T01:24:19.615Z,11.40
2023-03-21T01:24:56.867Z,11.40
2023-03-21T01:25:31.263Z,11.40
2023-03-21T01:26:03.160Z,11.40
2023-03-21T01:26:37.287Z,11.40
2023-03-21T01:27:10.063Z,11.40
2023-03-21T01:27:41.898Z,11.40
2023-03-21T01:28:14.017Z,11.40
2023-03-21T01:28:46.908Z,11.40
2023-03-21T01:29:18.713Z,11.40
2023-03-21T01:29:50.586Z,11.40
2023-03-21T01:30:24.100Z,11.40
2023-03-21T01:30:57.992Z,11.40
2023-03-21T01:31:30.006Z,11.40
2023-03-21T01:32:02.830Z,11.50
2023-03-21T01:32:34.673Z,11.50
2023-03-21T01:33:07.823Z,11.50
2023-03-21T01:33:41.218Z,11.50
2023-03-21T01:34:13.020Z,11.50
2023-03-21T01:34:44.829Z,11.50
2023-03-21T01:35:17.759Z,11.50
2023-03-21T01:35:55.375Z,11.50
2023-03-21T01:36:36.733Z,11.50
2023-03-21T01:37:08.654Z,11.50
2023-03-21T01:37:40.751Z,11.50
2023-03-21T01:38:13.076Z,11.60
2023-03-21T01:38:46.572Z,11.50
2023-03-21T01:39:18.382Z,11.60
2023-03-21T01:39:50.268Z,11.50
2023-03-21T01:40:24.389Z,11.50
2023-03-21T01:40:57.296Z,11.50
2023-03-21T01:41:42.568Z,11.50
2023-03-21T01:42:15.436Z,11.50
2023-03-21T01:42:48.236Z,11.50
2023-03-21T01:43:24.284Z,11.50
2023-03-21T01:43:56.219Z,11.50
2023-03-21T01:44:29.555Z,11.50
2023-03-21T01:45:04.418Z,11.50
2023-03-21T01:46:10.228Z,11.50
2023-03-21T01:46:51.883Z,11.50
2023-03-21T01:47:32.159Z,11.50
2023-03-21T01:48:04.257Z,11.40
2023-03-21T01:48:40.840Z,11.50
2023-03-21T01:49:20.275Z,11.40
2023-03-21T01:49:56.368Z,11.40
2023-03-21T01:50:28.260Z,11.40
2023-03-21T01:51:01.699Z,11.40
2023-03-21T01:51:37.857Z,11.40
2023-03-21T01:52:20.997Z,11.50
2023-03-21T01:52:56.582Z,11.40
2023-03-21T01:53:30.951Z,11.40
2023-03-21T01:54:03.990Z,11.40
2023-03-21T01:54:41.265Z,11.40
2023-03-21T01:55:14.712Z,11.40
2023-03-21T01:55:47.698Z,11.40
2023-03-21T01:56:25.639Z,11.40
2023-03-21T01:57:01.636Z,11.40
2023-03-21T01:57:49.246Z,11.50
2023-03-21T01:58:27.545Z,11.50
2023-03-21T01:59:06.506Z,11.40
2023-03-21T01:59:42.012Z,11.40
2023-03-21T02:00:15.380Z,11.40
2023-03-21T02:00:50.046Z,11.40
2023-03-21T02:01:23.691Z,11.40
2023-03-21T02:01:58.394Z,11.40
2023-03-21T02:02:31.501Z,11.40
2023-03-21T02:03:15.221Z,11.40
2023-03-21T02:03:52.505Z,11.40
2023-03-21T02:04:28.241Z,11.40
2023-03-21T02:05:03.944Z,11.40
2023-03-21T02:05:42.452Z,11.40
2023-03-21T02:06:18.412Z,11.40
2023-03-21T02:06:56.602Z,11.30
2023-03-21T02:07:31.499Z,11.30
2023-03-21T02:08:03.739Z,11.30
2023-03-21T02:08:39.566Z,11.30
2023-03-21T02:09:17.296Z,11.20
2023-03-21T02:09:51.098Z,11.20
2023-03-21T02:10:23.131Z,11.20
2023-03-21T02:10:56.537Z,11.20
2023-03-21T02:11:30.452Z,11.10
2023-03-21T02:12:02.975Z,11.10
2023-03-21T02:12:35.785Z,11.10
2023-03-21T02:13:09.551Z,11.10
2023-03-21T02:13:41.470Z,11.00
2023-03-21T02:14:26.736Z,11.00
2023-03-21T02:15:00.602Z,11.00
2023-03-21T02:15:32.406Z,11.00
2023-03-21T02:16:13.861Z,10.90
2023-03-21T02:16:55.917Z,10.90
2023-03-21T02:17:36.854Z,11.00
2023-03-21T02:18:17.124Z,10.90
2023-03-21T02:19:01.379Z,10.90
2023-03-21T02:20:02.613Z,10.90
2023-03-21T02:21:04.800Z,10.90
2023-03-21T02:22:11.966Z,10.90
2023-03-21T02:23:37.841Z,10.90
2023-03-21T02:24:38.055Z,10.80
2023-03-21T02:25:28.897Z,10.80
2023-03-21T02:26:23.384Z,10.80
2023-03-21T02:27:04.553Z,10.80
2023-03-21T02:27:41.655Z,10.80
2023-03-21T02:28:20.282Z,10.80
2023-03-21T02:28:57.427Z,10.70
2023-03-21T02:29:52.320Z,10.80
2023-03-21T02:30:52.659Z,10.70
2023-03-21T02:31:32.712Z,10.80
2023-03-21T02:32:20.462Z,10.80
2023-03-21T02:33:29.529Z,10.80
2023-03-21T02:34:41.111Z,10.80
2023-03-21T02:35:39.078Z,10.80
2023-03-21T02:36:26.235Z,10.80
2023-03-21T02:37:17.180Z,10.70
2023-03-21T02:38:00.588Z,10.70
2023-03-21T02:38:38.366Z,10.70
2023-03-21T02:39:14.605Z,10.70
2023-03-21T02:39:56.072Z,10.80
2023-03-21T02:40:32.999Z,10.70
2023-03-21T02:41:18.014Z,10.80
2023-03-21T02:41:56.789Z,10.80
2023-03-21T02:42:36.165Z,10.80
2023-03-21T02:43:22.612Z,10.80
2023-03-21T02:44:00.942Z,10.80
2023-03-21T02:44:40.764Z,10.80
2023-03-21T02:45:18.754Z,10.80
2023-03-21T02:45:54.625Z,10.80
2023-03-21T02:46:43.937Z,10.80
2023-03-21T02:47:24.144Z,10.80
2023-03-21T02:48:01.620Z,10.80
2023-03-21T02:48:50.340Z,10.80
2023-03-21T02:49:27.729Z,10.80
2023-03-21T02:50:09.165Z,10.80
2023-03-21T02:50:45.459Z,10.90
2023-03-21T02:51:20.505Z,10.80
2023-03-21T02:51:54.790Z,10.80
2023-03-21T02:52:39.100Z,10.90
2023-03-21T02:53:16.652Z,10.90
2023-03-21T02:54:13.024Z,10.90
2023-03-21T02:54:48.525Z,10.90
2023-03-21T02:55:25.558Z,10.80
2023-03-21T02:55:59.072Z,10.80
2023-03-21T02:56:33.524Z,10.90
2023-03-21T02:57:06.741Z,10.80
2023-03-21T02:57:43.099Z,10.90
2023-03-21T02:58:18.706Z,10.90
2023-03-21T02:58:50.999Z,10.90
2023-03-21T02:59:26.049Z,10.90
2023-03-21T03:00:02.448Z,11.10
2023-03-21T03:00:40.218Z,11.00
2023-03-21T03:01:13.315Z,11.00
2023-03-21T03:01:45.332Z,11.00
2023-03-21T03:02:22.966Z,11.10
2023-03-21T03:03:08.221Z,11.10
2023-03-21T03:03:41.012Z,11.10
2023-03-21T03:04:20.865Z,11.20
2023-03-21T03:04:54.114Z,11.10
2023-03-21T03:05:27.966Z,11.00
2023-03-21T03:06:02.352Z,11.00
2023-03-21T03:06:46.739Z,11.00
2023-03-21T03:07:31.641Z,11.10
2023-03-21T03:08:17.507Z,11.10
2023-03-21T03:09:05.131Z,11.10
2023-03-21T03:09:48.100Z,11.00
2023-03-21T03:10:38.306Z,10.90
2023-03-21T03:11:21.484Z,10.90
2023-03-21T03:12:04.516Z,10.90
2023-03-21T03:12:46.685Z,10.80
2023-03-21T03:13:35.431Z,10.80
2023-03-21T03:14:59.880Z,10.80
2023-03-21T03:15:33.389Z,10.80
2023-03-21T03:16:19.821Z,10.80
2023-03-21T03:17:09.974Z,10.80
2023-03-21T03:17:51.895Z,10.80
2023-03-21T03:18:29.738Z,10.80
2023-03-21T03:19:03.931Z,10.80
2023-03-21T03:19:50.528Z,10.90
2023-03-21T03:20:31.372Z,10.80
2023-03-21T03:21:09.086Z,10.80
2023-03-21T03:21:48.541Z,10.70
2023-03-21T03:22:26.525Z,10.70
2023-03-21T03:23:12.603Z,10.60
2023-03-21T03:23:49.567Z,10.60
2023-03-21T03:24:27.262Z,10.60
2023-03-21T03:25:18.314Z,10.60
2023-03-21T03:25:58.449Z,10.60
2023-03-21T03:26:34.578Z,10.50
2023-03-21T03:27:10.983Z,10.50
2023-03-21T03:27:46.365Z,10.50
2023-03-21T03:28:22.957Z,10.50
2023-03-21T03:28:58.880Z,10.50
2023-03-21T03:29:34.721Z,10.50
2023-03-21T03:30:09.451Z,10.50
2023-03-21T03:30:48.838Z,10.50
2023-03-21T03:31:34.345Z,10.50
2023-03-21T03:32:12.116Z,10.50
2023-03-21T03:32:50.180Z,10.50
2023-03-21T03:33:25.034Z,10.50
2023-03-21T03:34:00.897Z,10.50
2023-03-21T03:34:39.507Z,10.50
2023-03-21T03:35:14.648Z,10.50
2023-03-21T03:35:55.811Z,10.50
2023-03-21T03:36:40.623Z,10.50
2023-03-21T03:37:16.293Z,10.50
2023-03-21T03:37:51.333Z,10.60
2023-03-21T03:38:27.580Z,10.60
2023-03-21T03:39:00.994Z,10.60
2023-03-21T03:39:37.809Z,10.50
2023-03-21T03:40:16.690Z,10.50
2023-03-21T03:40:53.704Z,10.50
2023-03-21T03:41:30.160Z,10.50
2023-03-21T03:42:27.449Z,10.50
2023-03-21T03:43:05.808Z,10.50
2023-03-21T03:43:43.212Z,10.50
2023-03-21T03:44:15.542Z,10.50
2023-03-21T03:44:49.191Z,10.50
2023-03-21T03:45:26.999Z,10.50
2023-03-21T03:46:06.254Z,10.50
2023-03-21T03:46:48.366Z,10.50
2023-03-21T03:47:33.488Z,10.60
2023-03-21T03:48:17.357Z,10.50
2023-03-21T03:48:55.271Z,10.60
2023-03-21T03:49:31.864Z,10.60
2023-03-21T03:50:12.269Z,10.60
2023-03-21T03:50:50.627Z,10.60
2023-03-21T03:51:27.502Z,10.60
2023-03-21T03:52:05.631Z,10.60
2023-03-21T03:52:53.557Z,10.70
2023-03-21T03:53:32.472Z,10.70
2023-03-21T03:54:08.923Z,10.70
2023-03-21T03:54:44.303Z,10.70
2023-03-21T03:55:18.944Z,10.80
2023-03-21T03:55:54.518Z,10.70
2023-03-21T03:56:27.063Z,10.70
2023-03-21T03:56:58.975Z,10.80
2023-03-21T03:57:31.861Z,10.80
2023-03-21T03:58:06.407Z,10.80
2023-03-21T03:58:45.926Z,10.80
2023-03-21T03:59:21.857Z,10.70
2023-03-21T03:59:53.941Z,10.70
2023-03-21T04:00:27.082Z,10.80
2023-03-21T04:01:00.558Z,10.70
2023-03-21T04:01:32.840Z,10.80
2023-03-21T04:02:04.752Z,10.70
2023-03-21T04:02:36.583Z,10.80
2023-03-21T04:03:09.779Z,10.70
2023-03-21T04:04:01.074Z,10.70
2023-03-21T04:04:38.187Z,10.80
2023-03-21T04:05:10.253Z,10.80
2023-03-21T04:05:46.216Z,10.70
2023-03-21T04:06:19.090Z,10.70
2023-03-21T04:06:51.627Z,10.70
2023-03-21T04:07:25.058Z,10.70
2023-03-21T04:07:57.041Z,10.70
2023-03-21T04:08:30.575Z,10.70
2023-03-21T04:09:13.680Z,10.70
2023-03-21T04:09:51.878Z,10.70
2023-03-21T04:10:23.730Z,10.60
2023-03-21T04:10:56.561Z,10.60
2023-03-21T04:11:28.419Z,10.70
2023-03-21T04:12:00.296Z,10.70
2023-03-21T04:12:33.194Z,10.70
2023-03-21T04:13:05.004Z,10.80
2023-03-21T04:13:36.851Z,10.80
2023-03-21T04:14:09.606Z,10.70
2023-03-21T04:14:47.001Z,10.80
2023-03-21T04:15:19.394Z,10.80
2023-03-21T04:15:52.226Z,10.80
2023-03-21T04:16:24.172Z,10.70
2023-03-21T04:16:56.012Z,10.80
2023-03-21T04:17:28.985Z,10.80
2023-03-21T04:18:00.836Z,10.80
2023-03-21T04:18:32.633Z,10.80
2023-03-21T04:19:05.410Z,10.80
2023-03-21T04:19:37.275Z,10.80
2023-03-21T04:20:13.907Z,10.70
2023-03-21T04:20:51.030Z,10.70
2023-03-21T04:21:22.878Z,10.70
2023-03-21T04:21:54.687Z,10.70
2023-03-21T04:22:28.004Z,10.70
2023-03-21T04:22:59.849Z,10.70
2023-03-21T04:23:33.246Z,10.70
2023-03-21T04:24:07.295Z,10.70
2023-03-21T04:24:39.836Z,10.70
2023-03-21T04:25:19.004Z,10.70
2023-03-21T04:25:57.577Z,10.70
2023-03-21T04:26:32.971Z,10.70
2023-03-21T04:27:05.759Z,10.60
2023-03-21T04:27:38.746Z,10.60
2023-03-21T04:28:10.649Z,10.60
2023-03-21T04:28:42.456Z,10.60
2023-03-21T04:29:15.274Z,10.70
2023-03-21T04:29:47.107Z,10.60
2023-03-21T04:30:19.667Z,10.60
2023-03-21T04:31:02.199Z,10.70
2023-03-21T04:31:35.940Z,10.60
2023-03-21T04:32:16.149Z,10.60
2023-03-21T04:32:53.899Z,10.60
2023-03-21T04:33:26.199Z,10.60
2023-03-21T04:33:59.524Z,10.70
2023-03-21T04:34:31.337Z,10.70
2023-03-21T04:35:03.176Z,10.70
2023-03-21T04:35:37.683Z,10.70
2023-03-21T04:36:25.870Z,10.70
2023-03-21T04:36:58.719Z,10.80
2023-03-21T04:37:33.704Z,10.80
2023-03-21T04:38:05.543Z,10.80
2023-03-21T04:38:39.871Z,10.80
2023-03-21T04:39:13.696Z,10.70
2023-03-21T04:39:46.407Z,10.80
2023-03-21T04:40:19.826Z,10.80
2023-03-21T04:40:51.992Z,10.80
2023-03-21T04:41:23.973Z,10.80
2023-03-21T04:41:56.878Z,10.80
2023-03-21T04:42:28.672Z,10.80
2023-03-21T04:43:01.257Z,10.80
2023-03-21T04:43:34.028Z,10.80
2023-03-21T04:44:06.080Z,10.80
2023-03-21T04:44:38.000Z,10.80
2023-03-21T04:45:11.919Z,10.80
2023-03-21T04:45:44.105Z,10.80
2023-03-21T04:46:16.082Z,10.80
2023-03-21T04:46:48.888Z,10.80
2023-03-21T04:47:21.848Z,10.80
2023-03-21T04:47:53.717Z,10.80
2023-03-21T04:48:26.620Z,10.80
2023-03-21T04:48:58.457Z,10.80
2023-03-21T04:49:30.807Z,10.80
2023-03-21T04:50:03.755Z,10.80
2023-03-21T04:50:36.073Z,10.80
2023-03-21T04:51:08.117Z,10.80
2023-03-21T04:51:41.643Z,10.90
2023-03-21T04:52:13.503Z,10.80
2023-03-21T04:52:45.287Z,10.80
2023-03-21T04:53:18.594Z,10.80
2023-03-21T04:53:52.463Z,10.90
2023-03-21T04:54:24.402Z,10.90
2023-03-21T04:54:57.231Z,10.90
2023-03-21T04:55:31.548Z,10.90
2023-03-21T04:56:03.506Z,10.90
2023-03-21T04:56:36.428Z,11.00
2023-03-21T04:57:08.692Z,10.90
2023-03-21T04:57:40.551Z,10.90
2023-03-21T04:58:13.319Z,10.90
2023-03-21T04:58:45.287Z,10.90
2023-03-21T04:59:17.340Z,10.90
2023-03-21T04:59:50.432Z,10.90
2023-03-21T05:00:23.508Z,10.90
2023-03-21T05:00:57.304Z,10.90
2023-03-21T05:01:30.571Z,10.90
2023-03-21T05:02:02.841Z,10.90
2023-03-21T05:02:35.615Z,10.90
2023-03-21T05:03:09.068Z,10.90
2023-03-21T05:03:41.459Z,10.90
2023-03-21T05:04:15.728Z,10.90
2023-03-21T05:04:47.619Z,10.90
2023-03-21T05:05:19.759Z,10.80
2023-03-21T05:05:52.570Z,10.80
2023-03-21T05:06:25.996Z,10.70
2023-03-21T05:06:58.731Z,10.70
2023-03-21T05:07:32.668Z,10.70
2023-03-21T05:08:05.683Z,10.80
2023-03-21T05:08:37.601Z,10.80
2023-03-21T05:09:12.520Z,10.70
2023-03-21T05:09:44.341Z,10.80
2023-03-21T05:10:17.361Z,10.80
2023-03-21T05:10:50.203Z,10.80
2023-03-21T05:11:22.076Z,10.80
2023-03-21T05:11:53.916Z,10.80
2023-03-21T05:12:26.799Z,10.80
2023-03-21T05:12:58.749Z,10.80
2023-03-21T05:13:31.564Z,10.80
2023-03-21T05:14:03.883Z,10.80
2023-03-21T05:14:36.680Z,10.70
2023-03-21T05:15:09.807Z,10.70
2023-03-21T05:15:41.616Z,10.70
2023-03-21T05:16:14.493Z,10.70
2023-03-21T05:16:52.953Z,10.70
2023-03-21T05:17:24.963Z,10.60
2023-03-21T05:17:58.535Z,10.60
2023-03-21T05:18:30.360Z,10.50
2023-03-21T05:19:04.864Z,10.50
2023-03-21T05:19:40.360Z,10.50
2023-03-21T05:20:15.953Z,10.50
2023-03-21T05:20:54.123Z,10.50
2023-03-21T05:21:29.346Z,10.50
2023-03-21T05:22:04.461Z,10.50
2023-03-21T05:22:40.417Z,10.60
2023-03-21T05:23:13.652Z,10.60
2023-03-21T05:23:45.578Z,10.40
2023-03-21T05:24:21.267Z,10.60
2023-03-21T05:24:55.267Z,10.60
2023-03-21T05:25:34.690Z,10.60
2023-03-21T05:26:08.299Z,10.60
2023-03-21T05:26:40.529Z,10.60
2023-03-21T05:27:13.941Z,10.60
2023-03-21T05:27:54.003Z,10.70
2023-03-21T05:28:31.346Z,10.70
2023-03-21T05:29:03.169Z,10.70
2023-03-21T05:29:36.374Z,10.70
2023-03-21T05:30:11.133Z,10.60
2023-03-21T05:30:42.945Z,10.70
2023-03-21T05:31:16.720Z,10.70
2023-03-21T05:31:48.580Z,10.70
2023-03-21T05:32:20.613Z,10.80
2023-03-21T05:32:53.416Z,10.80
2023-03-21T05:33:25.330Z,10.70
2023-03-21T05:33:57.158Z,10.80
2023-03-21T05:34:30.774Z,10.80
2023-03-21T05:35:02.911Z,10.80
2023-03-21T05:35:34.740Z,10.80
2023-03-21T05:36:08.450Z,10.80
2023-03-21T05:36:40.498Z,10.80
2023-03-21T05:37:12.334Z,10.80
2023-03-21T05:37:44.193Z,10.80
2023-03-21T05:38:17.178Z,10.70
2023-03-21T05:38:49.113Z,10.70
2023-03-21T05:39:22.468Z,10.70
2023-03-21T05:39:55.318Z,10.70
2023-03-21T05:40:27.426Z,10.80
2023-03-21T05:40:59.217Z,10.80
2023-03-21T05:41:32.078Z,10.80
2023-03-21T05:42:04.137Z,10.80
2023-03-21T05:42:35.999Z,10.80
2023-03-21T05:43:08.772Z,10.80
2023-03-21T05:43:40.959Z,10.80
2023-03-21T05:44:12.804Z,10.80
2023-03-21T05:44:46.265Z,10.80
2023-03-21T05:45:18.302Z,10.80
2023-03-21T05:45:50.149Z,10.80
2023-03-21T05:46:23.113Z,10.80
2023-03-21T05:46:54.930Z,10.80
2023-03-21T05:47:26.907Z,10.80
2023-03-21T05:47:59.760Z,10.80
2023-03-21T05:48:31.575Z,10.80
2023-03-21T05:49:03.527Z,10.80
2023-03-21T05:49:36.368Z,10.80
2023-03-21T05:50:09.472Z,10.80
2023-03-21T05:50:41.366Z,10.80
2023-03-21T05:51:14.180Z,10.80
2023-03-21T05:51:46.006Z,10.80
2023-03-21T05:52:18.819Z,10.80
2023-03-21T05:52:50.688Z,10.80
2023-03-21T05:53:23.321Z,10.80
2023-03-21T05:53:56.210Z,10.80
2023-03-21T05:54:29.440Z,10.80
2023-03-21T05:55:02.255Z,10.80
2023-03-21T05:55:34.222Z,10.80
2023-03-21T05:56:07.391Z,10.80
2023-03-21T05:56:40.554Z,10.80
2023-03-21T05:57:12.483Z,10.90
2023-03-21T05:57:45.310Z,10.80
2023-03-21T05:58:17.131Z,10.90
2023-03-21T05:58:48.923Z,10.80
2023-03-21T05:59:21.718Z,10.90
2023-03-21T05:59:53.541Z,10.90
2023-03-21T06:00:26.785Z,10.90
2023-03-21T06:00:58.583Z,10.90
2023-03-21T06:01:30.424Z,10.90
2023-03-21T06:02:03.336Z,10.90
2023-03-21T06:02:35.244Z,10.90
2023-03-21T06:03:07.126Z,10.90
2023-03-21T06:03:40.275Z,10.90
2023-03-21T06:04:12.218Z,10.90
2023-03-21T06:04:45.220Z,10.90
2023-03-21T06:05:17.190Z,10.90
2023-03-21T06:05:49.031Z,10.90
2023-03-21T06:06:21.849Z,10.80
2023-03-21T06:06:54.226Z,10.90
2023-03-21T06:07:26.128Z,10.80
2023-03-21T06:07:58.906Z,10.90
2023-03-21T06:08:31.672Z,10.80
2023-03-21T06:09:03.831Z,10.80
2023-03-21T06:09:38.019Z,10.80
2023-03-21T06:10:11.095Z,10.80
2023-03-21T06:10:42.914Z,10.80
2023-03-21T06:11:23.671Z,10.80
2023-03-21T06:11:56.816Z,10.80
2023-03-21T06:12:28.689Z,10.90
2023-03-21T06:13:01.462Z,10.90
2023-03-21T06:13:33.305Z,10.90
2023-03-21T06:14:05.133Z,10.90
2023-03-21T06:14:37.947Z,10.90
2023-03-21T06:15:11.069Z,10.90
2023-03-21T06:15:42.957Z,10.90
2023-03-21T06:16:15.838Z,10.90
2023-03-21T06:16:47.721Z,10.90
2023-03-21T06:17:19.763Z,10.90
2023-03-21T06:17:52.524Z,10.90
2023-03-21T06:18:24.507Z,10.90
2023-03-21T06:18:56.520Z,11.00
2023-03-21T06:19:29.387Z,11.00
2023-03-21T06:20:01.612Z,11.00
2023-03-21T06:20:33.575Z,11.00
2023-03-21T06:21:06.814Z,11.00
2023-03-21T06:21:39.177Z,11.00
2023-03-21T06:22:12.243Z,11.00
2023-03-21T06:22:44.203Z,11.00
2023-03-21T06:23:17.314Z,11.00
2023-03-21T06:23:51.699Z,11.00
2023-03-21T06:24:23.563Z,11.00
2023-03-21T06:24:57.830Z,11.00
2023-03-21T06:25:29.787Z,11.00
2023-03-21T06:26:01.659Z,11.00
2023-03-21T06:26:34.619Z,11.00
2023-03-21T06:27:06.465Z,11.00
2023-03-21T06:27:39.723Z,11.00
2023-03-21T06:28:11.513Z,11.00
2023-03-21T06:28:43.328Z,11.10
2023-03-21T06:29:16.236Z,11.10
2023-03-21T06:29:48.070Z,11.10
2023-03-21T06:30:21.395Z,11.10
2023-03-21T06:30:53.381Z,11.10
2023-03-21T06:31:26.465Z,11.10
2023-03-21T06:31:59.388Z,11.10
2023-03-21T06:32:31.309Z,11.10
2023-03-21T06:33:03.186Z,11.10
2023-03-21T06:33:36.247Z,11.10
2023-03-21T06:34:10.357Z,11.10
2023-03-21T06:34:42.678Z,11.10
2023-03-21T06:35:16.460Z,11.10
2023-03-21T06:35:51.877Z,11.10
2023-03-21T06:36:24.837Z,11.10
2023-03-21T06:36:57.051Z,11.30
2023-03-21T06:37:29.201Z,11.20
2023-03-21T06:38:02.512Z,11.20
2023-03-21T06:38:37.893Z,11.20
2023-03-21T06:39:10.525Z,11.10
2023-03-21T06:39:43.464Z,11.10
2023-03-21T06:40:17.252Z,11.10
2023-03-21T06:40:50.583Z,11.10
2023-03-21T06:41:22.417Z,11.10
2023-03-21T06:41:55.241Z,11.20
2023-03-21T06:42:27.068Z,11.20
2023-03-21T06:42:59.825Z,11.20
2023-03-21T06:43:32.124Z,11.20
2023-03-21T06:44:04.088Z,11.30
2023-03-21T06:44:37.122Z,11.30
2023-03-21T06:45:09.733Z,11.40
2023-03-21T06:45:41.546Z,11.30
2023-03-21T06:46:14.357Z,11.30
2023-03-21T06:46:46.569Z,11.30
2023-03-21T06:47:19.571Z,11.30
2023-03-21T06:47:51.508Z,11.20
2023-03-21T06:48:24.433Z,11.30
2023-03-21T06:48:56.462Z,11.20
2023-03-21T06:49:29.336Z,11.10
2023-03-21T06:50:01.160Z,11.10
2023-03-21T06:50:33.051Z,11.20
2023-03-21T06:51:06.318Z,11.20
2023-03-21T06:51:38.104Z,11.20
2023-03-21T06:52:09.956Z,11.20
2023-03-21T06:52:42.811Z,11.20
2023-03-21T06:53:14.642Z,11.20
2023-03-21T06:53:46.646Z,11.20
2023-03-21T06:54:19.718Z,11.30
2023-03-21T06:54:51.583Z,11.20
2023-03-21T06:55:26.801Z,11.30
2023-03-21T06:55:59.595Z,11.30
2023-03-21T06:56:31.385Z,11.30
2023-03-21T06:57:03.347Z,11.30
2023-03-21T06:57:36.117Z,11.40
2023-03-21T06:58:07.979Z,11.50
2023-03-21T06:58:40.134Z,11.50
2023-03-21T06:59:12.930Z,11.50
2023-03-21T06:59:44.729Z,11.50
2023-03-21T07:00:18.065Z,11.50
2023-03-21T07:00:51.044Z,11.60
2023-03-21T07:01:22.927Z,11.60
2023-03-21T07:01:54.716Z,11.60
2023-03-21T07:02:27.672Z,11.60
2023-03-21T07:03:00.102Z,11.60
2023-03-21T07:03:32.793Z,11.70
2023-03-21T07:04:06.236Z,11.70
2023-03-21T07:04:38.077Z,11.70
2023-03-21T07:05:09.890Z,11.70
2023-03-21T07:05:43.236Z,11.70
2023-03-21T07:06:16.466Z,11.80
2023-03-21T07:06:49.318Z,11.80
2023-03-21T07:07:24.614Z,11.80
2023-03-21T07:07:56.388Z,11.80
2023-03-21T07:08:29.128Z,11.80
2023-03-21T07:09:03.007Z,11.80
2023-03-21T07:09:34.819Z,11.80
2023-03-21T07:10:08.776Z,11.80
2023-03-21T07:10:45.417Z,11.80
2023-03-21T07:11:18.376Z,11.80
2023-03-21T07:11:53.287Z,11.80
2023-03-21T07:12:25.242Z,11.80
2023-03-21T07:13:00.234Z,11.80
2023-03-21T07:13:32.536Z,11.90
2023-03-21T07:14:04.803Z,11.90
2023-03-21T07:14:37.609Z,11.90
2023-03-21T07:15:10.398Z,12.00
2023-03-21T07:15:42.347Z,12.00
2023-03-21T07:16:15.539Z,12.00
2023-03-21T07:16:47.446Z,12.00
2023-03-21T07:17:19.268Z,12.00
2023-03-21T07:17:52.010Z,12.10
2023-03-21T07:18:23.998Z,12.10
2023-03-21T07:18:56.363Z,12.10
2023-03-21T07:19:29.290Z,12.10
2023-03-21T07:20:01.208Z,12.20
2023-03-21T07:20:33.615Z,12.20
2023-03-21T07:21:06.792Z,12.20
2023-03-21T07:21:38.602Z,12.20
2023-03-21T07:22:10.484Z,12.20
2023-03-21T07:22:42.380Z,12.20
2023-03-21T07:23:15.364Z,12.20
2023-03-21T07:23:47.290Z,12.30
2023-03-21T07:24:20.148Z,12.30
2023-03-21T07:25:03.988Z,12.30
2023-03-21T07:25:38.007Z,12.30
2023-03-21T07:26:11.385Z,12.30
2023-03-21T07:26:44.146Z,12.30
2023-03-21T07:27:18.055Z,12.30
2023-03-21T07:27:50.619Z,12.30
2023-03-21T07:28:24.316Z,12.30
2023-03-21T07:28:56.144Z,12.30
2023-03-21T07:29:27.996Z,12.30
2023-03-21T07:30:01.056Z,12.40
2023-03-21T07:30:32.872Z,12.40
2023-03-21T07:31:08.275Z,12.40
2023-03-21T07:31:40.267Z,12.40
2023-03-21T07:32:12.244Z,12.40
2023-03-21T07:32:47.514Z,12.40
2023-03-21T07:33:19.351Z,12.40
2023-03-21T07:33:51.227Z,12.40
2023-03-21T07:34:24.100Z,12.30
2023-03-21T07:34:55.947Z,12.40